sensor_id;sensor_type;location;lat;lon;timestamp;P1;durP1;ratioP1;P2;durP2;ratioP2
62693;SDS011;48759;52.544;13.418;2023-04-01T00:00:32;4.13;;;2.60;;
62693;SDS011;48759;52.544;13.418;2023-04-01T00:02:59;4.33;;;3.00;;
62693;SDS011;48759;52.544;13.418;2023-04-01T00:05:28;4.67;;;3.23;;
62693;SDS011;48759;52.544;13.418;2023-04-01T00:07:55;7.40;;;2.90;;
62693;SDS011;48759;52.544;13.418;2023-04-01T00:10:23;3.77;;;2.70;;
62693;SDS011;48759;52.544;13.418;2023-04-01T00:12:51;3.57;;;3.27;;
62693;SDS011;48759;52.544;13.418;2023-04-01T00:15:18;3.10;;;2.70;;
62693;SDS011;48759;52.544;13.418;2023-04-01T00:17:45;6.70;;;3.30;;
62693;SDS011;48759;52.544;13.418;2023-04-01T00:20:13;5.03;;;2.80;;
62693;SDS011;48759;52.544;13.418;2023-04-01T00:22:40;2.90;;;2.43;;
62693;SDS011;48759;52.544;13.418;2023-04-01T00:25:08;2.60;;;2.40;;
62693;SDS011;48759;52.544;13.418;2023-04-01T00:27:36;4.03;;;2.93;;
62693;SDS011;48759;52.544;13.418;2023-04-01T00:30:04;4.67;;;2.30;;
62693;SDS011;48759;52.544;13.418;2023-04-01T00:32:32;7.07;;;3.10;;
62693;SDS011;48759;52.544;13.418;2023-04-01T00:34:59;5.13;;;2.63;;
62693;SDS011;48759;52.544;13.418;2023-04-01T00:37:26;4.17;;;3.30;;
62693;SDS011;48759;52.544;13.418;2023-04-01T00:39:54;2.70;;;2.40;;
62693;SDS011;48759;52.544;13.418;2023-04-01T00:42:23;4.20;;;3.40;;
62693;SDS011;48759;52.544;13.418;2023-04-01T00:44:52;4.17;;;3.07;;
62693;SDS011;48759;52.544;13.418;2023-04-01T00:47:20;4.40;;;2.80;;
62693;SDS011;48759;52.544;13.418;2023-04-01T00:49:49;5.17;;;3.00;;
62693;SDS011;48759;52.544;13.418;2023-04-01T00:52:20;3.30;;;3.00;;
62693;SDS011;48759;52.544;13.418;2023-04-01T00:54:49;4.37;;;2.80;;
62693;SDS011;48759;52.544;13.418;2023-04-01T00:57:28;7.47;;;3.10;;
62693;SDS011;48759;52.544;13.418;2023-04-01T01:00:08;5.13;;;3.17;;
62693;SDS011;48759;52.544;13.418;2023-04-01T01:02:38;4.03;;;2.70;;
62693;SDS011;48759;52.544;13.418;2023-04-01T01:05:11;5.00;;;3.40;;
62693;SDS011;48759;52.544;13.418;2023-04-01T01:07:41;5.50;;;3.77;;
62693;SDS011;48759;52.544;13.418;2023-04-01T01:10:20;4.57;;;2.70;;
62693;SDS011;48759;52.544;13.418;2023-04-01T01:12:52;3.33;;;3.00;;
62693;SDS011;48759;52.544;13.418;2023-04-01T01:15:28;4.43;;;3.23;;
62693;SDS011;48759;52.544;13.418;2023-04-01T01:18:02;5.97;;;2.77;;
62693;SDS011;48759;52.544;13.418;2023-04-01T01:20:38;3.70;;;2.70;;
62693;SDS011;48759;52.544;13.418;2023-04-01T01:23:41;4.30;;;3.17;;
62693;SDS011;48759;52.544;13.418;2023-04-01T01:29:30;7.70;;;3.77;;
62693;SDS011;48759;52.544;13.418;2023-04-01T01:32:07;5.60;;;3.47;;
62693;SDS011;48759;52.544;13.418;2023-04-01T01:34:46;7.27;;;3.80;;
62693;SDS011;48759;52.544;13.418;2023-04-01T01:37:22;9.27;;;3.43;;
62693;SDS011;48759;52.544;13.418;2023-04-01T01:39:54;5.40;;;3.50;;
62693;SDS011;48759;52.544;13.418;2023-04-01T01:42:23;5.17;;;3.57;;
62693;SDS011;48759;52.544;13.418;2023-04-01T01:44:52;6.87;;;3.60;;
62693;SDS011;48759;52.544;13.418;2023-04-01T01:47:22;7.13;;;3.10;;
62693;SDS011;48759;52.544;13.418;2023-04-01T01:49:49;6.83;;;3.10;;
62693;SDS011;48759;52.544;13.418;2023-04-01T01:52:19;7.37;;;3.60;;
62693;SDS011;48759;52.544;13.418;2023-04-01T01:54:49;8.70;;;3.10;;
62693;SDS011;48759;52.544;13.418;2023-04-01T01:57:17;3.30;;;3.00;;
62693;SDS011;48759;52.544;13.418;2023-04-01T01:59:47;4.67;;;2.80;;
62693;SDS011;48759;52.544;13.418;2023-04-01T02:02:16;10.30;;;2.90;;
62693;SDS011;48759;52.544;13.418;2023-04-01T02:04:44;2.90;;;2.57;;
62693;SDS011;48759;52.544;13.418;2023-04-01T02:07:13;6.43;;;3.07;;
62693;SDS011;48759;52.544;13.418;2023-04-01T02:09:45;4.73;;;2.70;;
62693;SDS011;48759;52.544;13.418;2023-04-01T02:12:15;8.40;;;3.30;;
62693;SDS011;48759;52.544;13.418;2023-04-01T02:14:43;4.73;;;2.80;;
62693;SDS011;48759;52.544;13.418;2023-04-01T02:17:15;7.57;;;3.17;;
62693;SDS011;48759;52.544;13.418;2023-04-01T02:19:46;9.73;;;3.70;;
62693;SDS011;48759;52.544;13.418;2023-04-01T02:22:21;8.17;;;3.07;;
62693;SDS011;48759;52.544;13.418;2023-04-01T02:24:52;3.77;;;2.80;;
62693;SDS011;48759;52.544;13.418;2023-04-01T02:27:27;4.00;;;2.90;;
62693;SDS011;48759;52.544;13.418;2023-04-01T02:29:54;6.87;;;3.20;;
62693;SDS011;48759;52.544;13.418;2023-04-01T02:32:21;6.20;;;3.37;;
62693;SDS011;48759;52.544;13.418;2023-04-01T02:34:49;4.97;;;3.13;;
62693;SDS011;48759;52.544;13.418;2023-04-01T02:37:17;5.57;;;2.63;;
62693;SDS011;48759;52.544;13.418;2023-04-01T02:39:44;2.70;;;2.50;;
62693;SDS011;48759;52.544;13.418;2023-04-01T02:42:14;3.30;;;2.80;;
62693;SDS011;48759;52.544;13.418;2023-04-01T02:44:45;3.90;;;3.10;;
62693;SDS011;48759;52.544;13.418;2023-04-01T02:47:12;5.43;;;3.20;;
62693;SDS011;48759;52.544;13.418;2023-04-01T02:49:39;4.73;;;2.73;;
62693;SDS011;48759;52.544;13.418;2023-04-01T02:52:08;3.20;;;2.87;;
62693;SDS011;48759;52.544;13.418;2023-04-01T02:54:37;6.23;;;3.10;;
62693;SDS011;48759;52.544;13.418;2023-04-01T02:57:04;6.37;;;3.50;;
62693;SDS011;48759;52.544;13.418;2023-04-01T02:59:32;5.37;;;3.17;;
62693;SDS011;48759;52.544;13.418;2023-04-01T03:02:01;8.47;;;3.23;;
62693;SDS011;48759;52.544;13.418;2023-04-01T03:04:27;11.90;;;9.57;;
62693;SDS011;48759;52.544;13.418;2023-04-01T03:06:55;10.97;;;7.63;;
62693;SDS011;48759;52.544;13.418;2023-04-01T03:09:21;3.63;;;2.70;;
62693;SDS011;48759;52.544;13.418;2023-04-01T03:11:48;3.10;;;2.80;;
62693;SDS011;48759;52.544;13.418;2023-04-01T03:14:15;9.70;;;2.93;;
62693;SDS011;48759;52.544;13.418;2023-04-01T03:16:41;5.63;;;3.03;;
62693;SDS011;48759;52.544;13.418;2023-04-01T03:19:09;9.57;;;3.30;;
62693;SDS011;48759;52.544;13.418;2023-04-01T03:21:36;4.93;;;2.90;;
62693;SDS011;48759;52.544;13.418;2023-04-01T03:24:05;6.33;;;3.80;;
62693;SDS011;48759;52.544;13.418;2023-04-01T03:26:33;3.83;;;2.77;;
62693;SDS011;48759;52.544;13.418;2023-04-01T03:29:00;3.37;;;2.90;;
62693;SDS011;48759;52.544;13.418;2023-04-01T03:31:28;4.10;;;3.53;;
62693;SDS011;48759;52.544;13.418;2023-04-01T03:33:56;6.37;;;3.10;;
62693;SDS011;48759;52.544;13.418;2023-04-01T03:36:24;6.07;;;3.53;;
62693;SDS011;48759;52.544;13.418;2023-04-01T03:38:51;7.80;;;3.63;;
62693;SDS011;48759;52.544;13.418;2023-04-01T03:41:18;7.23;;;4.27;;
62693;SDS011;48759;52.544;13.418;2023-04-01T03:43:46;8.77;;;4.00;;
62693;SDS011;48759;52.544;13.418;2023-04-01T03:46:16;7.60;;;3.60;;
62693;SDS011;48759;52.544;13.418;2023-04-01T03:48:47;4.70;;;3.57;;
62693;SDS011;48759;52.544;13.418;2023-04-01T03:51:13;7.40;;;3.23;;
62693;SDS011;48759;52.544;13.418;2023-04-01T03:53:42;4.60;;;3.27;;
62693;SDS011;48759;52.544;13.418;2023-04-01T03:56:08;4.40;;;3.60;;
62693;SDS011;48759;52.544;13.418;2023-04-01T03:58:37;4.33;;;3.00;;
62693;SDS011;48759;52.544;13.418;2023-04-01T04:01:13;6.37;;;3.40;;
62693;SDS011;48759;52.544;13.418;2023-04-01T04:03:42;4.03;;;3.00;;
62693;SDS011;48759;52.544;13.418;2023-04-01T04:06:11;3.53;;;3.00;;
62693;SDS011;48759;52.544;13.418;2023-04-01T04:08:41;7.10;;;3.53;;
62693;SDS011;48759;52.544;13.418;2023-04-01T04:11:09;7.00;;;3.50;;
62693;SDS011;48759;52.544;13.418;2023-04-01T04:13:36;4.53;;;3.07;;
62693;SDS011;48759;52.544;13.418;2023-04-01T04:16:07;7.87;;;4.60;;
62693;SDS011;48759;52.544;13.418;2023-04-01T04:18:35;7.90;;;3.93;;
62693;SDS011;48759;52.544;13.418;2023-04-01T04:21:02;6.77;;;3.63;;
62693;SDS011;48759;52.544;13.418;2023-04-01T04:23:29;4.93;;;4.03;;
62693;SDS011;48759;52.544;13.418;2023-04-01T04:26:00;8.07;;;3.77;;
62693;SDS011;48759;52.544;13.418;2023-04-01T04:28:29;4.50;;;3.20;;
62693;SDS011;48759;52.544;13.418;2023-04-01T04:30:56;6.80;;;4.00;;
62693;SDS011;48759;52.544;13.418;2023-04-01T04:33:23;6.10;;;3.73;;
62693;SDS011;48759;52.544;13.418;2023-04-01T04:35:51;6.00;;;4.27;;
62693;SDS011;48759;52.544;13.418;2023-04-01T04:38:22;7.40;;;4.33;;
62693;SDS011;48759;52.544;13.418;2023-04-01T04:40:49;6.23;;;3.90;;
62693;SDS011;48759;52.544;13.418;2023-04-01T04:43:18;7.60;;;4.30;;
62693;SDS011;48759;52.544;13.418;2023-04-01T04:45:45;5.93;;;4.37;;
62693;SDS011;48759;52.544;13.418;2023-04-01T04:48:13;7.77;;;4.80;;
62693;SDS011;48759;52.544;13.418;2023-04-01T04:50:46;6.73;;;4.20;;
62693;SDS011;48759;52.544;13.418;2023-04-01T04:53:14;7.27;;;4.50;;
62693;SDS011;48759;52.544;13.418;2023-04-01T04:55:45;6.93;;;4.70;;
62693;SDS011;48759;52.544;13.418;2023-04-01T04:58:15;7.67;;;5.10;;
62693;SDS011;48759;52.544;13.418;2023-04-01T05:00:49;7.70;;;4.83;;
62693;SDS011;48759;52.544;13.418;2023-04-01T05:03:16;6.40;;;4.00;;
62693;SDS011;48759;52.544;13.418;2023-04-01T05:05:48;8.43;;;4.73;;
62693;SDS011;48759;52.544;13.418;2023-04-01T05:08:16;6.03;;;4.57;;
62693;SDS011;48759;52.544;13.418;2023-04-01T05:10:43;5.67;;;4.43;;
62693;SDS011;48759;52.544;13.418;2023-04-01T05:13:11;8.27;;;4.73;;
62693;SDS011;48759;52.544;13.418;2023-04-01T05:15:39;6.83;;;4.63;;
62693;SDS011;48759;52.544;13.418;2023-04-01T05:18:07;9.00;;;4.50;;
62693;SDS011;48759;52.544;13.418;2023-04-01T05:20:35;7.17;;;4.70;;
62693;SDS011;48759;52.544;13.418;2023-04-01T05:23:02;8.70;;;4.20;;
62693;SDS011;48759;52.544;13.418;2023-04-01T05:25:30;5.93;;;4.20;;
62693;SDS011;48759;52.544;13.418;2023-04-01T05:28:01;7.77;;;4.27;;
62693;SDS011;48759;52.544;13.418;2023-04-01T05:30:27;7.47;;;4.40;;
62693;SDS011;48759;52.544;13.418;2023-04-01T05:32:58;8.77;;;4.80;;
62693;SDS011;48759;52.544;13.418;2023-04-01T05:35:26;6.57;;;4.43;;
62693;SDS011;48759;52.544;13.418;2023-04-01T05:37:53;8.60;;;5.17;;
62693;SDS011;48759;52.544;13.418;2023-04-01T05:40:20;7.10;;;4.60;;
62693;SDS011;48759;52.544;13.418;2023-04-01T05:42:47;8.63;;;5.03;;
62693;SDS011;48759;52.544;13.418;2023-04-01T05:45:13;9.43;;;5.27;;
62693;SDS011;48759;52.544;13.418;2023-04-01T05:47:41;6.60;;;5.00;;
62693;SDS011;48759;52.544;13.418;2023-04-01T05:50:10;7.20;;;5.50;;
62693;SDS011;48759;52.544;13.418;2023-04-01T05:52:39;5.97;;;4.87;;
62693;SDS011;48759;52.544;13.418;2023-04-01T05:55:07;7.87;;;5.60;;
62693;SDS011;48759;52.544;13.418;2023-04-01T05:57:38;9.87;;;5.37;;
62693;SDS011;48759;52.544;13.418;2023-04-01T06:00:05;12.03;;;5.20;;
62693;SDS011;48759;52.544;13.418;2023-04-01T06:02:33;9.20;;;5.30;;
62693;SDS011;48759;52.544;13.418;2023-04-01T06:05:03;8.33;;;5.00;;
62693;SDS011;48759;52.544;13.418;2023-04-01T06:07:41;8.17;;;5.20;;
62693;SDS011;48759;52.544;13.418;2023-04-01T06:10:14;8.47;;;4.80;;
62693;SDS011;48759;52.544;13.418;2023-04-01T06:12:54;10.63;;;6.27;;
62693;SDS011;48759;52.544;13.418;2023-04-01T06:15:32;9.50;;;4.73;;
62693;SDS011;48759;52.544;13.418;2023-04-01T06:18:09;6.00;;;5.10;;
62693;SDS011;48759;52.544;13.418;2023-04-01T06:20:59;10.63;;;5.03;;
62693;SDS011;48759;52.544;13.418;2023-04-01T06:23:37;9.60;;;5.07;;
62693;SDS011;48759;52.544;13.418;2023-04-01T06:26:18;7.60;;;5.30;;
62693;SDS011;48759;52.544;13.418;2023-04-01T06:28:58;9.20;;;5.20;;
62693;SDS011;48759;52.544;13.418;2023-04-01T06:31:46;14.07;;;5.93;;
62693;SDS011;48759;52.544;13.418;2023-04-01T06:34:37;7.40;;;4.60;;
62693;SDS011;48759;52.544;13.418;2023-04-01T06:37:43;11.77;;;5.87;;
62693;SDS011;48759;52.544;13.418;2023-04-01T06:40:26;8.53;;;6.20;;
62693;SDS011;48759;52.544;13.418;2023-04-01T06:43:09;8.23;;;5.10;;
62693;SDS011;48759;52.544;13.418;2023-04-01T06:45:46;6.87;;;6.17;;
62693;SDS011;48759;52.544;13.418;2023-04-01T06:48:24;8.17;;;6.23;;
62693;SDS011;48759;52.544;13.418;2023-04-01T06:51:01;9.93;;;5.00;;
62693;SDS011;48759;52.544;13.418;2023-04-01T06:53:39;8.53;;;5.37;;
62693;SDS011;48759;52.544;13.418;2023-04-01T06:56:15;6.87;;;5.43;;
62693;SDS011;48759;52.544;13.418;2023-04-01T06:58:45;8.70;;;5.57;;
62693;SDS011;48759;52.544;13.418;2023-04-01T07:01:16;9.50;;;4.80;;
62693;SDS011;48759;52.544;13.418;2023-04-01T07:03:49;7.43;;;4.80;;
62693;SDS011;48759;52.544;13.418;2023-04-01T07:06:23;6.60;;;5.30;;
62693;SDS011;48759;52.544;13.418;2023-04-01T07:08:56;12.50;;;5.77;;
62693;SDS011;48759;52.544;13.418;2023-04-01T07:11:29;9.50;;;6.30;;
62693;SDS011;48759;52.544;13.418;2023-04-01T07:13:59;8.90;;;6.10;;
62693;SDS011;48759;52.544;13.418;2023-04-01T07:16:36;8.77;;;6.03;;
62693;SDS011;48759;52.544;13.418;2023-04-01T07:19:08;10.13;;;6.30;;
62693;SDS011;48759;52.544;13.418;2023-04-01T07:21:43;7.20;;;5.93;;
62693;SDS011;48759;52.544;13.418;2023-04-01T07:24:16;6.13;;;5.50;;
62693;SDS011;48759;52.544;13.418;2023-04-01T07:26:48;7.33;;;6.10;;
62693;SDS011;48759;52.544;13.418;2023-04-01T07:29:19;9.20;;;6.30;;
62693;SDS011;48759;52.544;13.418;2023-04-01T07:31:56;9.40;;;5.80;;
62693;SDS011;48759;52.544;13.418;2023-04-01T07:34:55;9.80;;;6.33;;
62693;SDS011;48759;52.544;13.418;2023-04-01T07:37:35;7.07;;;5.43;;
62693;SDS011;48759;52.544;13.418;2023-04-01T07:40:17;9.47;;;6.50;;
62693;SDS011;48759;52.544;13.418;2023-04-01T07:42:57;10.83;;;6.10;;
62693;SDS011;48759;52.544;13.418;2023-04-01T07:45:38;9.27;;;6.50;;
62693;SDS011;48759;52.544;13.418;2023-04-01T07:48:16;8.27;;;5.90;;
62693;SDS011;48759;52.544;13.418;2023-04-01T07:50:50;7.80;;;6.33;;
62693;SDS011;48759;52.544;13.418;2023-04-01T07:53:26;5.67;;;5.13;;
62693;SDS011;48759;52.544;13.418;2023-04-01T07:56:05;5.17;;;4.27;;
62693;SDS011;48759;52.544;13.418;2023-04-01T07:58:37;12.47;;;6.40;;
62693;SDS011;48759;52.544;13.418;2023-04-01T08:01:17;8.97;;;6.10;;
62693;SDS011;48759;52.544;13.418;2023-04-01T08:03:58;9.20;;;5.70;;
62693;SDS011;48759;52.544;13.418;2023-04-01T08:06:43;6.30;;;5.13;;
62693;SDS011;48759;52.544;13.418;2023-04-01T08:09:21;7.60;;;4.20;;
62693;SDS011;48759;52.544;13.418;2023-04-01T08:12:04;5.90;;;3.90;;
62693;SDS011;48759;52.544;13.418;2023-04-01T08:14:41;4.10;;;3.43;;
62693;SDS011;48759;52.544;13.418;2023-04-01T08:17:16;5.40;;;3.77;;
62693;SDS011;48759;52.544;13.418;2023-04-01T08:19:55;5.23;;;4.17;;
62693;SDS011;48759;52.544;13.418;2023-04-01T08:22:30;4.33;;;3.43;;
62693;SDS011;48759;52.544;13.418;2023-04-01T08:25:04;5.83;;;4.53;;
62693;SDS011;48759;52.544;13.418;2023-04-01T08:27:36;6.17;;;4.80;;
62693;SDS011;48759;52.544;13.418;2023-04-01T08:30:15;6.53;;;5.10;;
62693;SDS011;48759;52.544;13.418;2023-04-01T08:32:45;7.03;;;5.60;;
62693;SDS011;48759;52.544;13.418;2023-04-01T08:35:18;7.97;;;6.30;;
62693;SDS011;48759;52.544;13.418;2023-04-01T08:37:53;8.57;;;6.30;;
62693;SDS011;48759;52.544;13.418;2023-04-01T08:40:41;7.40;;;6.37;;
62693;SDS011;48759;52.544;13.418;2023-04-01T08:43:30;9.63;;;7.00;;
62693;SDS011;48759;52.544;13.418;2023-04-01T08:46:14;8.27;;;6.20;;
62693;SDS011;48759;52.544;13.418;2023-04-01T08:48:58;10.23;;;7.80;;
62693;SDS011;48759;52.544;13.418;2023-04-01T08:57:44;12.30;;;9.43;;
62693;SDS011;48759;52.544;13.418;2023-04-01T09:00:24;13.33;;;10.50;;
62693;SDS011;48759;52.544;13.418;2023-04-01T09:03:00;13.40;;;10.53;;
62693;SDS011;48759;52.544;13.418;2023-04-01T09:06:02;11.93;;;10.03;;
62693;SDS011;48759;52.544;13.418;2023-04-01T09:08:57;12.60;;;9.00;;
62693;SDS011;48759;52.544;13.418;2023-04-01T09:11:43;10.63;;;8.90;;
62693;SDS011;48759;52.544;13.418;2023-04-01T09:14:29;14.50;;;10.23;;
62693;SDS011;48759;52.544;13.418;2023-04-01T09:17:16;18.90;;;11.93;;
62693;SDS011;48759;52.544;13.418;2023-04-01T09:20:01;15.70;;;11.77;;
62693;SDS011;48759;52.544;13.418;2023-04-01T09:22:57;24.57;;;18.57;;
62693;SDS011;48759;52.544;13.418;2023-04-01T09:25:38;13.47;;;10.73;;
62693;SDS011;48759;52.544;13.418;2023-04-01T09:28:17;12.53;;;10.77;;
62693;SDS011;48759;52.544;13.418;2023-04-01T09:33:42;13.80;;;12.10;;
62693;SDS011;48759;52.544;13.418;2023-04-01T09:36:30;21.17;;;17.50;;
62693;SDS011;48759;52.544;13.418;2023-04-01T09:39:15;13.97;;;10.87;;
62693;SDS011;48759;52.544;13.418;2023-04-01T09:41:57;13.00;;;10.90;;
62693;SDS011;48759;52.544;13.418;2023-04-01T09:44:34;10.67;;;9.57;;
62693;SDS011;48759;52.544;13.418;2023-04-01T09:47:07;11.10;;;9.90;;
62693;SDS011;48759;52.544;13.418;2023-04-01T09:49:58;10.60;;;9.53;;
62693;SDS011;48759;52.544;13.418;2023-04-01T09:52:42;11.17;;;9.80;;
62693;SDS011;48759;52.544;13.418;2023-04-01T09:55:28;26.03;;;19.90;;
62693;SDS011;48759;52.544;13.418;2023-04-01T09:58:38;13.80;;;11.53;;
62693;SDS011;48759;52.544;13.418;2023-04-01T10:04:27;13.37;;;9.77;;
62693;SDS011;48759;52.544;13.418;2023-04-01T10:07:32;13.97;;;10.73;;
62693;SDS011;48759;52.544;13.418;2023-04-01T10:16:31;24.10;;;15.10;;
62693;SDS011;48759;52.544;13.418;2023-04-01T10:25:29;10.23;;;8.33;;
62693;SDS011;48759;52.544;13.418;2023-04-01T10:37:15;11.70;;;10.17;;
62693;SDS011;48759;52.544;13.418;2023-04-01T10:43:14;24.53;;;14.90;;
62693;SDS011;48759;52.544;13.418;2023-04-01T10:49:24;15.23;;;10.47;;
62693;SDS011;48759;52.544;13.418;2023-04-01T10:52:23;17.90;;;10.73;;
62693;SDS011;48759;52.544;13.418;2023-04-01T10:55:19;17.20;;;11.63;;
62693;SDS011;48759;52.544;13.418;2023-04-01T10:58:18;12.60;;;11.10;;
62693;SDS011;48759;52.544;13.418;2023-04-01T11:01:22;45.40;;;19.30;;
62693;SDS011;48759;52.544;13.418;2023-04-01T11:04:18;25.80;;;14.40;;
62693;SDS011;48759;52.544;13.418;2023-04-01T11:07:29;16.27;;;10.47;;
62693;SDS011;48759;52.544;13.418;2023-04-01T11:16:54;18.33;;;11.47;;
62693;SDS011;48759;52.544;13.418;2023-04-01T11:22:58;23.67;;;13.40;;
62693;SDS011;48759;52.544;13.418;2023-04-01T11:25:39;21.93;;;12.60;;
62693;SDS011;48759;52.544;13.418;2023-04-01T11:28:24;25.70;;;15.03;;
62693;SDS011;48759;52.544;13.418;2023-04-01T11:31:14;75.87;;;25.53;;
62693;SDS011;48759;52.544;13.418;2023-04-01T11:34:02;17.10;;;10.60;;
62693;SDS011;48759;52.544;13.418;2023-04-01T11:36:43;10.70;;;9.70;;
62693;SDS011;48759;52.544;13.418;2023-04-01T11:39:26;11.43;;;9.37;;
62693;SDS011;48759;52.544;13.418;2023-04-01T11:42:01;24.37;;;14.43;;
62693;SDS011;48759;52.544;13.418;2023-04-01T11:44:43;13.57;;;11.07;;
62693;SDS011;48759;52.544;13.418;2023-04-01T11:50:20;13.33;;;10.70;;
62693;SDS011;48759;52.544;13.418;2023-04-01T11:53:00;13.17;;;10.73;;
62693;SDS011;48759;52.544;13.418;2023-04-01T11:55:40;13.20;;;11.80;;
62693;SDS011;48759;52.544;13.418;2023-04-01T11:58:23;15.70;;;12.10;;
62693;SDS011;48759;52.544;13.418;2023-04-01T12:07:08;14.37;;;12.53;;
62693;SDS011;48759;52.544;13.418;2023-04-01T12:09:46;12.60;;;11.30;;
62693;SDS011;48759;52.544;13.418;2023-04-01T12:12:24;11.80;;;10.63;;
62693;SDS011;48759;52.544;13.418;2023-04-01T12:15:02;12.97;;;11.53;;
62693;SDS011;48759;52.544;13.418;2023-04-01T12:17:43;14.33;;;12.83;;
62693;SDS011;48759;52.544;13.418;2023-04-01T12:20:28;13.77;;;11.80;;
62693;SDS011;48759;52.544;13.418;2023-04-01T12:23:12;16.03;;;11.30;;
62693;SDS011;48759;52.544;13.418;2023-04-01T12:28:46;10.13;;;9.13;;
62693;SDS011;48759;52.544;13.418;2023-04-01T12:31:33;13.30;;;10.00;;
62693;SDS011;48759;52.544;13.418;2023-04-01T12:37:06;21.37;;;16.50;;
62693;SDS011;48759;52.544;13.418;2023-04-01T12:42:57;13.30;;;11.90;;
62693;SDS011;48759;52.544;13.418;2023-04-01T12:45:33;17.00;;;12.67;;
62693;SDS011;48759;52.544;13.418;2023-04-01T12:51:17;20.07;;;15.63;;
62693;SDS011;48759;52.544;13.418;2023-04-01T13:00:20;15.07;;;13.07;;
62693;SDS011;48759;52.544;13.418;2023-04-01T13:03:12;19.10;;;14.87;;
62693;SDS011;48759;52.544;13.418;2023-04-01T13:06:09;15.63;;;13.83;;
62693;SDS011;48759;52.544;13.418;2023-04-01T13:08:53;16.40;;;13.40;;
62693;SDS011;48759;52.544;13.418;2023-04-01T13:11:33;16.13;;;13.37;;
62693;SDS011;48759;52.544;13.418;2023-04-01T13:17:03;13.90;;;12.40;;
62693;SDS011;48759;52.544;13.418;2023-04-01T13:19:38;17.30;;;14.30;;
62693;SDS011;48759;52.544;13.418;2023-04-01T13:22:11;15.40;;;13.53;;
62693;SDS011;48759;52.544;13.418;2023-04-01T13:24:45;19.40;;;13.67;;
62693;SDS011;48759;52.544;13.418;2023-04-01T13:27:18;16.97;;;13.67;;
62693;SDS011;48759;52.544;13.418;2023-04-01T13:29:59;14.77;;;12.20;;
62693;SDS011;48759;52.544;13.418;2023-04-01T13:32:39;14.83;;;12.03;;
62693;SDS011;48759;52.544;13.418;2023-04-01T13:35:21;16.27;;;12.57;;
62693;SDS011;48759;52.544;13.418;2023-04-01T13:40:54;16.33;;;12.93;;
62693;SDS011;48759;52.544;13.418;2023-04-01T13:43:31;20.60;;;14.47;;
62693;SDS011;48759;52.544;13.418;2023-04-01T13:46:15;14.00;;;11.70;;
62693;SDS011;48759;52.544;13.418;2023-04-01T13:52:09;14.03;;;10.63;;
62693;SDS011;48759;52.544;13.418;2023-04-01T13:55:06;25.83;;;14.10;;
62693;SDS011;48759;52.544;13.418;2023-04-01T14:01:00;13.57;;;10.37;;
62693;SDS011;48759;52.544;13.418;2023-04-01T14:06:43;18.80;;;12.90;;
62693;SDS011;48759;52.544;13.418;2023-04-01T14:09:29;14.30;;;9.40;;
62693;SDS011;48759;52.544;13.418;2023-04-01T14:12:22;17.63;;;10.90;;
62693;SDS011;48759;52.544;13.418;2023-04-01T14:15:01;9.20;;;8.30;;
62693;SDS011;48759;52.544;13.418;2023-04-01T14:17:50;13.40;;;9.13;;
62693;SDS011;48759;52.544;13.418;2023-04-01T14:20:39;10.30;;;8.37;;
62693;SDS011;48759;52.544;13.418;2023-04-01T14:23:13;13.00;;;8.30;;
62693;SDS011;48759;52.544;13.418;2023-04-01T14:28:50;7.60;;;5.30;;
62693;SDS011;48759;52.544;13.418;2023-04-01T14:31:27;13.73;;;8.10;;
62693;SDS011;48759;52.544;13.418;2023-04-01T14:34:06;11.10;;;8.00;;
62693;SDS011;48759;52.544;13.418;2023-04-01T14:36:50;7.40;;;6.50;;
62693;SDS011;48759;52.544;13.418;2023-04-01T14:42:38;6.73;;;6.17;;
62693;SDS011;48759;52.544;13.418;2023-04-01T14:45:21;9.23;;;7.87;;
62693;SDS011;48759;52.544;13.418;2023-04-01T14:48:13;26.73;;;13.73;;
62693;SDS011;48759;52.544;13.418;2023-04-01T14:50:48;13.53;;;9.70;;
62693;SDS011;48759;52.544;13.418;2023-04-01T14:53:23;13.90;;;9.20;;
62693;SDS011;48759;52.544;13.418;2023-04-01T14:55:56;15.13;;;10.33;;
62693;SDS011;48759;52.544;13.418;2023-04-01T14:58:25;15.50;;;10.40;;
62693;SDS011;48759;52.544;13.418;2023-04-01T15:01:11;11.60;;;8.90;;
62693;SDS011;48759;52.544;13.418;2023-04-01T15:03:51;17.17;;;9.57;;
62693;SDS011;48759;52.544;13.418;2023-04-01T15:06:30;12.57;;;8.87;;
62693;SDS011;48759;52.544;13.418;2023-04-01T15:09:17;7.60;;;6.10;;
62693;SDS011;48759;52.544;13.418;2023-04-01T15:11:56;11.07;;;7.77;;
62693;SDS011;48759;52.544;13.418;2023-04-01T15:14:47;5.90;;;5.30;;
62693;SDS011;48759;52.544;13.418;2023-04-01T15:17:37;8.10;;;6.90;;
62693;SDS011;48759;52.544;13.418;2023-04-01T15:20:22;8.70;;;7.10;;
62693;SDS011;48759;52.544;13.418;2023-04-01T15:23:06;7.67;;;6.97;;
62693;SDS011;48759;52.544;13.418;2023-04-01T15:25:49;7.13;;;6.40;;
62693;SDS011;48759;52.544;13.418;2023-04-01T15:28:32;10.10;;;9.00;;
62693;SDS011;48759;52.544;13.418;2023-04-01T15:31:04;13.33;;;8.83;;
62693;SDS011;48759;52.544;13.418;2023-04-01T15:33:39;15.10;;;10.00;;
62693;SDS011;48759;52.544;13.418;2023-04-01T15:36:16;11.40;;;8.87;;
62693;SDS011;48759;52.544;13.418;2023-04-01T15:38:53;15.30;;;9.63;;
62693;SDS011;48759;52.544;13.418;2023-04-01T15:41:28;15.03;;;10.10;;
62693;SDS011;48759;52.544;13.418;2023-04-01T15:47:07;19.20;;;11.30;;
62693;SDS011;48759;52.544;13.418;2023-04-01T15:49:59;11.70;;;8.40;;
62693;SDS011;48759;52.544;13.418;2023-04-01T15:52:55;22.80;;;13.10;;
62693;SDS011;48759;52.544;13.418;2023-04-01T15:55:31;9.90;;;8.30;;
62693;SDS011;48759;52.544;13.418;2023-04-01T15:58:16;15.43;;;8.60;;
62693;SDS011;48759;52.544;13.418;2023-04-01T16:00:58;14.60;;;9.60;;
62693;SDS011;48759;52.544;13.418;2023-04-01T16:03:39;17.37;;;9.50;;
62693;SDS011;48759;52.544;13.418;2023-04-01T16:06:21;8.70;;;7.80;;
62693;SDS011;48759;52.544;13.418;2023-04-01T16:11:52;10.90;;;8.10;;
62693;SDS011;48759;52.544;13.418;2023-04-01T16:14:28;7.87;;;6.13;;
62693;SDS011;48759;52.544;13.418;2023-04-01T16:17:08;10.10;;;6.03;;
62693;SDS011;48759;52.544;13.418;2023-04-01T16:19:49;7.13;;;6.43;;
62693;SDS011;48759;52.544;13.418;2023-04-01T16:22:20;7.27;;;6.53;;
62693;SDS011;48759;52.544;13.418;2023-04-01T16:24:54;6.97;;;6.37;;
62693;SDS011;48759;52.544;13.418;2023-04-01T16:27:29;8.37;;;6.70;;
62693;SDS011;48759;52.544;13.418;2023-04-01T16:30:03;7.57;;;6.87;;
62693;SDS011;48759;52.544;13.418;2023-04-01T16:32:51;7.43;;;6.73;;
62693;SDS011;48759;52.544;13.418;2023-04-01T16:35:25;7.60;;;6.20;;
62693;SDS011;48759;52.544;13.418;2023-04-01T16:38:02;11.10;;;7.60;;
62693;SDS011;48759;52.544;13.418;2023-04-01T16:40:37;6.33;;;5.00;;
62693;SDS011;48759;52.544;13.418;2023-04-01T16:43:13;5.57;;;4.80;;
62693;SDS011;48759;52.544;13.418;2023-04-01T16:45:53;5.77;;;5.13;;
62693;SDS011;48759;52.544;13.418;2023-04-01T16:48:33;31.80;;;13.13;;
62693;SDS011;48759;52.544;13.418;2023-04-01T16:51:12;9.13;;;5.67;;
62693;SDS011;48759;52.544;13.418;2023-04-01T16:53:41;7.20;;;5.97;;
62693;SDS011;48759;52.544;13.418;2023-04-01T16:56:11;21.90;;;11.00;;
62693;SDS011;48759;52.544;13.418;2023-04-01T16:58:40;13.23;;;7.80;;
62693;SDS011;48759;52.544;13.418;2023-04-01T17:01:16;6.50;;;5.23;;
62693;SDS011;48759;52.544;13.418;2023-04-01T17:03:51;8.00;;;4.50;;
62693;SDS011;48759;52.544;13.418;2023-04-01T17:06:25;15.07;;;7.90;;